sensor_id;sensor_type;location;lat;lon;timestamp;pressure;altitude;pressure_sealevel;temperature;humidity
20825;BME280;10573;50.936;6.978;2023-04-26T00:00:41;101478.50;;;8.01;54.10
20825;BME280;10573;50.936;6.978;2023-04-26T00:03:06;101474.56;;;8.18;53.99
20825;BME280;10573;50.936;6.978;2023-04-26T00:05:32;101473.44;;;8.34;53.63
20825;BME280;10573;50.936;6.978;2023-04-26T00:07:57;101470.63;;;8.35;53.61
20825;BME280;10573;50.936;6.978;2023-04-26T00:10:23;101475.44;;;8.19;53.73
20825;BME280;10573;50.936;6.978;2023-04-26T00:12:48;101473.91;;;8.28;53.17
20825;BME280;10573;50.936;6.978;2023-04-26T00:15:14;101476.75;;;8.26;53.35
20825;BME280;10573;50.936;6.978;2023-04-26T00:17:39;101476.53;;;8.16;53.81
20825;BME280;10573;50.936;6.978;2023-04-26T00:20:05;101475.53;;;8.30;53.59
20825;BME280;10573;50.936;6.978;2023-04-26T00:22:32;101471.13;;;8.03;54.02
20825;BME280;10573;50.936;6.978;2023-04-26T00:24:57;101473.91;;;8.15;53.82
20825;BME280;10573;50.936;6.978;2023-04-26T00:27:23;101480.44;;;8.12;54.52
20825;BME280;10573;50.936;6.978;2023-04-26T00:29:48;101479.34;;;8.15;54.03
20825;BME280;10573;50.936;6.978;2023-04-26T00:32:13;101472.41;;;8.11;54.09
20825;BME280;10573;50.936;6.978;2023-04-26T00:34:39;101478.72;;;8.11;53.65
20825;BME280;10573;50.936;6.978;2023-04-26T00:37:04;101472.22;;;8.01;53.93
20825;BME280;10573;50.936;6.978;2023-04-26T00:39:29;101471.44;;;8.12;53.67
20825;BME280;10573;50.936;6.978;2023-04-26T00:41:55;101467.44;;;8.04;54.22
20825;BME280;10573;50.936;6.978;2023-04-26T00:44:20;101470.28;;;7.90;54.96
20825;BME280;10573;50.936;6.978;2023-04-26T00:46:46;101463.13;;;7.89;54.31
20825;BME280;10573;50.936;6.978;2023-04-26T00:49:15;101463.13;;;7.89;54.43
20825;BME280;10573;50.936;6.978;2023-04-26T00:51:41;101459.66;;;7.87;54.69
20825;BME280;10573;50.936;6.978;2023-04-26T00:54:06;101460.28;;;7.90;54.65
20825;BME280;10573;50.936;6.978;2023-04-26T00:56:32;101457.91;;;7.86;55.69
20825;BME280;10573;50.936;6.978;2023-04-26T00:58:58;101460.50;;;8.00;54.35
20825;BME280;10573;50.936;6.978;2023-04-26T01:01:24;101463.00;;;7.90;54.62
20825;BME280;10573;50.936;6.978;2023-04-26T01:03:49;101465.28;;;7.84;54.67
20825;BME280;10573;50.936;6.978;2023-04-26T01:06:14;101469.97;;;7.82;55.01
20825;BME280;10573;50.936;6.978;2023-04-26T01:08:40;101469.41;;;7.64;55.56
20825;BME280;10573;50.936;6.978;2023-04-26T01:11:05;101468.88;;;7.46;56.25
20825;BME280;10573;50.936;6.978;2023-04-26T01:13:31;101470.63;;;7.47;56.40
20825;BME280;10573;50.936;6.978;2023-04-26T01:15:56;101476.03;;;7.60;55.98
20825;BME280;10573;50.936;6.978;2023-04-26T01:18:22;101478.31;;;7.66;55.78
20825;BME280;10573;50.936;6.978;2023-04-26T01:20:48;101472.88;;;7.53;56.03
20825;BME280;10573;50.936;6.978;2023-04-26T01:23:13;101480.22;;;7.25;56.60
20825;BME280;10573;50.936;6.978;2023-04-26T01:25:38;101475.28;;;7.58;56.36
20825;BME280;10573;50.936;6.978;2023-04-26T01:28:04;101474.84;;;7.64;56.00
20825;BME280;10573;50.936;6.978;2023-04-26T01:30:29;101474.59;;;7.28;56.87
20825;BME280;10573;50.936;6.978;2023-04-26T01:32:55;101468.78;;;7.60;56.03
20825;BME280;10573;50.936;6.978;2023-04-26T01:35:20;101475.91;;;7.35;56.41
20825;BME280;10573;50.936;6.978;2023-04-26T01:37:45;101475.72;;;7.51;56.17
20825;BME280;10573;50.936;6.978;2023-04-26T01:40:11;101473.44;;;7.58;56.41
20825;BME280;10573;50.936;6.978;2023-04-26T01:42:36;101467.47;;;7.66;55.90
20825;BME280;10573;50.936;6.978;2023-04-26T01:45:01;101469.97;;;7.69;56.51
20825;BME280;10573;50.936;6.978;2023-04-26T01:47:27;101475.50;;;7.67;56.64
20825;BME280;10573;50.936;6.978;2023-04-26T01:49:52;101471.38;;;7.49;56.63
20825;BME280;10573;50.936;6.978;2023-04-26T01:52:17;101465.38;;;7.69;56.27
20825;BME280;10573;50.936;6.978;2023-04-26T01:54:43;101468.66;;;7.36;56.54
20825;BME280;10573;50.936;6.978;2023-04-26T01:57:08;101473.53;;;7.31;57.47
20825;BME280;10573;50.936;6.978;2023-04-26T01:59:33;101462.25;;;7.50;56.68
20825;BME280;10573;50.936;6.978;2023-04-26T02:01:59;101460.00;;;7.56;56.52
20825;BME280;10573;50.936;6.978;2023-04-26T02:04:24;101465.19;;;7.47;57.46
20825;BME280;10573;50.936;6.978;2023-04-26T02:06:49;101463.56;;;7.57;57.01
20825;BME280;10573;50.936;6.978;2023-04-26T02:09:15;101469.38;;;7.25;57.53
20825;BME280;10573;50.936;6.978;2023-04-26T02:11:40;101464.19;;;7.22;57.90
20825;BME280;10573;50.936;6.978;2023-04-26T02:14:05;101460.97;;;7.43;57.97
20825;BME280;10573;50.936;6.978;2023-04-26T02:16:31;101454.44;;;7.58;57.04
20825;BME280;10573;50.936;6.978;2023-04-26T02:18:57;101456.94;;;7.48;56.96
20825;BME280;10573;50.936;6.978;2023-04-26T02:21:23;101464.22;;;7.61;57.09
20825;BME280;10573;50.936;6.978;2023-04-26T02:23:48;101464.00;;;7.51;57.12
20825;BME280;10573;50.936;6.978;2023-04-26T02:26:14;101467.66;;;7.24;57.69
20825;BME280;10573;50.936;6.978;2023-04-26T02:28:39;101462.91;;;7.41;58.16
20825;BME280;10573;50.936;6.978;2023-04-26T02:31:06;101459.56;;;7.50;57.32
20825;BME280;10573;50.936;6.978;2023-04-26T02:33:31;101457.91;;;7.47;57.05
20825;BME280;10573;50.936;6.978;2023-04-26T02:35:57;101457.69;;;7.50;57.81
20825;BME280;10573;50.936;6.978;2023-04-26T02:38:22;101467.03;;;7.33;57.75
20825;BME280;10573;50.936;6.978;2023-04-26T02:40:56;101458.44;;;7.39;57.97
20825;BME280;10573;50.936;6.978;2023-04-26T02:43:21;101455.53;;;7.43;57.79
20825;BME280;10573;50.936;6.978;2023-04-26T02:45:46;101462.78;;;7.29;58.35
20825;BME280;10573;50.936;6.978;2023-04-26T02:48:12;101461.38;;;7.36;58.39
20825;BME280;10573;50.936;6.978;2023-04-26T02:50:37;101459.19;;;7.16;58.38
20825;BME280;10573;50.936;6.978;2023-04-26T02:53:02;101463.81;;;7.01;59.23
20825;BME280;10573;50.936;6.978;2023-04-26T02:55:28;101467.44;;;7.27;58.88
20825;BME280;10573;50.936;6.978;2023-04-26T02:57:53;101464.81;;;7.13;58.93
20825;BME280;10573;50.936;6.978;2023-04-26T03:00:19;101462.19;;;6.98;59.57
20825;BME280;10573;50.936;6.978;2023-04-26T03:02:44;101464.16;;;7.09;58.91
20825;BME280;10573;50.936;6.978;2023-04-26T03:05:09;101457.22;;;7.05;59.43
20825;BME280;10573;50.936;6.978;2023-04-26T03:07:35;101466.41;;;6.62;59.92
20825;BME280;10573;50.936;6.978;2023-04-26T03:10:00;101470.91;;;6.34;60.98
20825;BME280;10573;50.936;6.978;2023-04-26T03:12:26;101463.94;;;6.72;60.60
20825;BME280;10573;50.936;6.978;2023-04-26T03:14:51;101460.84;;;6.78;60.04
20825;BME280;10573;50.936;6.978;2023-04-26T03:17:16;101459.53;;;6.84;60.34
20825;BME280;10573;50.936;6.978;2023-04-26T03:19:42;101455.44;;;6.91;60.02
20825;BME280;10573;50.936;6.978;2023-04-26T03:22:07;101464.97;;;6.84;59.83
20825;BME280;10573;50.936;6.978;2023-04-26T03:24:33;101459.09;;;6.77;60.31
20825;BME280;10573;50.936;6.978;2023-04-26T03:26:58;101455.00;;;6.84;60.39
20825;BME280;10573;50.936;6.978;2023-04-26T03:29:24;101453.16;;;6.85;60.53
20825;BME280;10573;50.936;6.978;2023-04-26T03:31:49;101454.50;;;6.65;61.07
20825;BME280;10573;50.936;6.978;2023-04-26T03:34:15;101454.75;;;6.75;60.64
20825;BME280;10573;50.936;6.978;2023-04-26T03:36:40;101449.13;;;6.78;61.19
20825;BME280;10573;50.936;6.978;2023-04-26T03:39:06;101447.31;;;6.91;60.14
20825;BME280;10573;50.936;6.978;2023-04-26T03:41:31;101445.44;;;6.79;60.74
20825;BME280;10573;50.936;6.978;2023-04-26T03:43:57;101447.38;;;6.77;61.02
20825;BME280;10573;50.936;6.978;2023-04-26T03:46:22;101448.84;;;6.95;60.10
20825;BME280;10573;50.936;6.978;2023-04-26T03:48:48;101448.00;;;6.67;60.87
20825;BME280;10573;50.936;6.978;2023-04-26T03:51:13;101444.31;;;6.68;60.66
20825;BME280;10573;50.936;6.978;2023-04-26T03:53:39;101444.78;;;6.75;61.26
20825;BME280;10573;50.936;6.978;2023-04-26T03:56:05;101442.84;;;6.77;60.70
20825;BME280;10573;50.936;6.978;2023-04-26T03:58:31;101448.19;;;6.92;60.59
20825;BME280;10573;50.936;6.978;2023-04-26T04:00:57;101446.88;;;6.57;61.20
20825;BME280;10573;50.936;6.978;2023-04-26T04:03:22;101457.03;;;6.53;61.50
20825;BME280;10573;50.936;6.978;2023-04-26T04:05:48;101457.00;;;6.41;62.35
20825;BME280;10573;50.936;6.978;2023-04-26T04:08:13;101451.16;;;6.47;62.13
20825;BME280;10573;50.936;6.978;2023-04-26T04:10:39;101463.03;;;6.17;62.97
20825;BME280;10573;50.936;6.978;2023-04-26T04:13:06;101461.28;;;6.30;63.17
20825;BME280;10573;50.936;6.978;2023-04-26T04:15:32;101461.28;;;6.01;63.92
20825;BME280;10573;50.936;6.978;2023-04-26T04:17:57;101467.50;;;6.03;63.81
20825;BME280;10573;50.936;6.978;2023-04-26T04:20:23;101461.28;;;6.01;63.85
20825;BME280;10573;50.936;6.978;2023-04-26T04:22:48;101458.00;;;5.96;63.67
20825;BME280;10573;50.936;6.978;2023-04-26T04:25:13;101467.09;;;5.95;64.36
20825;BME280;10573;50.936;6.978;2023-04-26T04:27:39;101465.34;;;5.94;64.03
20825;BME280;10573;50.936;6.978;2023-04-26T04:30:06;101469.78;;;5.95;63.90
20825;BME280;10573;50.936;6.978;2023-04-26T04:32:33;101479.25;;;5.74;64.56
20825;BME280;10573;50.936;6.978;2023-04-26T04:34:58;101475.75;;;5.71;65.08
20825;BME280;10573;50.936;6.978;2023-04-26T04:37:23;101473.44;;;5.80;64.88
20825;BME280;10573;50.936;6.978;2023-04-26T04:39:52;101474.41;;;5.93;64.71
20825;BME280;10573;50.936;6.978;2023-04-26T04:42:18;101471.63;;;5.80;65.05
20825;BME280;10573;50.936;6.978;2023-04-26T04:44:43;101479.47;;;5.99;65.12
20825;BME280;10573;50.936;6.978;2023-04-26T04:47:10;101484.84;;;5.70;65.56
20825;BME280;10573;50.936;6.978;2023-04-26T04:49:35;101482.03;;;5.86;65.25
20825;BME280;10573;50.936;6.978;2023-04-26T04:52:01;101482.94;;;5.87;65.24
20825;BME280;10573;50.936;6.978;2023-04-26T04:54:27;101487.38;;;5.74;66.06
20825;BME280;10573;50.936;6.978;2023-04-26T04:56:52;101483.50;;;5.78;65.99
20825;BME280;10573;50.936;6.978;2023-04-26T04:59:17;101491.03;;;5.87;66.40
20825;BME280;10573;50.936;6.978;2023-04-26T05:01:43;101495.41;;;6.04;65.91
20825;BME280;10573;50.936;6.978;2023-04-26T05:04:08;101496.56;;;6.00;65.88
20825;BME280;10573;50.936;6.978;2023-04-26T05:06:33;101502.56;;;6.05;65.84
20825;BME280;10573;50.936;6.978;2023-04-26T05:08:59;101507.28;;;6.16;64.94
20825;BME280;10573;50.936;6.978;2023-04-26T05:11:25;101506.22;;;6.33;63.87
20825;BME280;10573;50.936;6.978;2023-04-26T05:13:50;101503.03;;;6.12;64.60
20825;BME280;10573;50.936;6.978;2023-04-26T05:16:16;101499.66;;;6.08;64.97
20825;BME280;10573;50.936;6.978;2023-04-26T05:18:41;101510.47;;;6.08;64.67
20825;BME280;10573;50.936;6.978;2023-04-26T05:21:06;101512.47;;;6.19;64.79
20825;BME280;10573;50.936;6.978;2023-04-26T05:23:32;101511.13;;;6.41;63.68
20825;BME280;10573;50.936;6.978;2023-04-26T05:26:05;101520.81;;;6.30;63.69
20825;BME280;10573;50.936;6.978;2023-04-26T05:28:30;101520.56;;;6.48;63.69
20825;BME280;10573;50.936;6.978;2023-04-26T05:30:56;101519.56;;;6.63;63.27
20825;BME280;10573;50.936;6.978;2023-04-26T05:33:21;101528.56;;;6.64;63.52
20825;BME280;10573;50.936;6.978;2023-04-26T05:35:47;101522.84;;;6.68;63.30
20825;BME280;10573;50.936;6.978;2023-04-26T05:38:12;101521.19;;;6.66;64.09
20825;BME280;10573;50.936;6.978;2023-04-26T05:40:37;101529.44;;;6.50;64.12
20825;BME280;10573;50.936;6.978;2023-04-26T05:43:02;101527.44;;;6.81;64.20
20825;BME280;10573;50.936;6.978;2023-04-26T05:45:28;101518.91;;;6.87;63.90
20825;BME280;10573;50.936;6.978;2023-04-26T05:47:53;101527.22;;;6.98;63.88
20825;BME280;10573;50.936;6.978;2023-04-26T05:50:18;101522.72;;;7.12;63.91
20825;BME280;10573;50.936;6.978;2023-04-26T05:52:44;101525.31;;;7.26;63.30
20825;BME280;10573;50.936;6.978;2023-04-26T05:55:09;101531.81;;;7.11;63.23
20825;BME280;10573;50.936;6.978;2023-04-26T05:57:34;101524.00;;;7.19;62.61
20825;BME280;10573;50.936;6.978;2023-04-26T05:59:59;101533.03;;;7.32;62.66
20825;BME280;10573;50.936;6.978;2023-04-26T06:02:25;101538.34;;;7.34;62.68
20825;BME280;10573;50.936;6.978;2023-04-26T06:04:50;101522.94;;;7.34;62.76
20825;BME280;10573;50.936;6.978;2023-04-26T06:07:16;101536.31;;;7.50;62.16
20825;BME280;10573;50.936;6.978;2023-04-26T06:09:41;101537.53;;;7.59;61.61
20825;BME280;10573;50.936;6.978;2023-04-26T06:12:07;101534.28;;;7.80;61.03
20825;BME280;10573;50.936;6.978;2023-04-26T06:14:32;101531.16;;;7.73;60.62
20825;BME280;10573;50.936;6.978;2023-04-26T06:16:57;101536.91;;;7.81;60.35
20825;BME280;10573;50.936;6.978;2023-04-26T06:19:22;101529.28;;;8.12;60.38
20825;BME280;10573;50.936;6.978;2023-04-26T06:21:48;101537.13;;;7.91;59.07
20825;BME280;10573;50.936;6.978;2023-04-26T06:24:13;101534.50;;;8.02;57.86
20825;BME280;10573;50.936;6.978;2023-04-26T06:26:39;101543.41;;;8.30;56.94
20825;BME280;10573;50.936;6.978;2023-04-26T06:29:04;101545.66;;;8.36;55.16
20825;BME280;10573;50.936;6.978;2023-04-26T06:31:30;101545.66;;;8.62;54.70
20825;BME280;10573;50.936;6.978;2023-04-26T06:33:55;101535.47;;;8.53;54.25
20825;BME280;10573;50.936;6.978;2023-04-26T06:36:20;101548.81;;;8.56;54.25
20825;BME280;10573;50.936;6.978;2023-04-26T06:38:46;101548.03;;;8.54;54.11
20825;BME280;10573;50.936;6.978;2023-04-26T06:41:11;101552.41;;;8.81;53.43
20825;BME280;10573;50.936;6.978;2023-04-26T06:43:36;101549.13;;;8.88;53.48
20825;BME280;10573;50.936;6.978;2023-04-26T06:46:02;101547.72;;;8.46;54.42
20825;BME280;10573;50.936;6.978;2023-04-26T06:48:27;101549.09;;;8.77;54.63
20825;BME280;10573;50.936;6.978;2023-04-26T06:50:52;101551.44;;;8.19;55.99
20825;BME280;10573;50.936;6.978;2023-04-26T06:53:18;101555.53;;;8.37;56.20
20825;BME280;10573;50.936;6.978;2023-04-26T06:55:43;101550.75;;;8.54;55.44
20825;BME280;10573;50.936;6.978;2023-04-26T06:58:08;101538.72;;;9.31;53.54
20825;BME280;10573;50.936;6.978;2023-04-26T07:00:34;101543.13;;;9.20;52.36
20825;BME280;10573;50.936;6.978;2023-04-26T07:02:59;101541.13;;;9.47;52.58
20825;BME280;10573;50.936;6.978;2023-04-26T07:05:25;101533.06;;;9.92;51.67
20825;BME280;10573;50.936;6.978;2023-04-26T07:07:50;101529.38;;;10.16;50.05
20825;BME280;10573;50.936;6.978;2023-04-26T07:10:16;101539.59;;;9.78;50.59
20825;BME280;10573;50.936;6.978;2023-04-26T07:12:41;101536.81;;;10.25;50.42
20825;BME280;10573;50.936;6.978;2023-04-26T07:15:06;101542.09;;;10.04;50.65
20825;BME280;10573;50.936;6.978;2023-04-26T07:17:32;101535.81;;;10.26;50.35
20825;BME280;10573;50.936;6.978;2023-04-26T07:19:57;101540.16;;;10.06;50.77
20825;BME280;10573;50.936;6.978;2023-04-26T07:22:23;101531.72;;;10.20;50.75
20825;BME280;10573;50.936;6.978;2023-04-26T07:24:48;101540.16;;;10.40;50.61
20825;BME280;10573;50.936;6.978;2023-04-26T07:27:13;101538.44;;;10.50;49.62
20825;BME280;10573;50.936;6.978;2023-04-26T07:29:39;101540.75;;;10.32;50.04
20825;BME280;10573;50.936;6.978;2023-04-26T07:32:04;101537.81;;;10.47;49.40
20825;BME280;10573;50.936;6.978;2023-04-26T07:34:30;101533.31;;;9.89;50.52
20825;BME280;10573;50.936;6.978;2023-04-26T07:36:55;101532.84;;;10.29;50.08
20825;BME280;10573;50.936;6.978;2023-04-26T07:39:21;101534.09;;;10.48;49.38
20825;BME280;10573;50.936;6.978;2023-04-26T07:41:46;101526.06;;;9.54;50.15
20825;BME280;10573;50.936;6.978;2023-04-26T07:44:12;101533.13;;;10.37;48.80
20825;BME280;10573;50.936;6.978;2023-04-26T07:46:37;101526.88;;;10.69;47.17
20825;BME280;10573;50.936;6.978;2023-04-26T07:49:02;101531.63;;;10.22;48.08
20825;BME280;10573;50.936;6.978;2023-04-26T07:51:27;101528.09;;;10.77;47.24
20825;BME280;10573;50.936;6.978;2023-04-26T07:53:53;101527.06;;;10.89;46.20
20825;BME280;10573;50.936;6.978;2023-04-26T07:56:20;101536.31;;;10.65;47.37
20825;BME280;10573;50.936;6.978;2023-04-26T07:58:45;101539.53;;;10.25;48.25
20825;BME280;10573;50.936;6.978;2023-04-26T08:01:10;101541.22;;;10.71;46.76
20825;BME280;10573;50.936;6.978;2023-04-26T08:03:36;101534.13;;;11.03;46.75
20825;BME280;10573;50.936;6.978;2023-04-26T08:06:02;101532.81;;;10.74;46.69
20825;BME280;10573;50.936;6.978;2023-04-26T08:08:28;101535.50;;;10.86;46.53
20825;BME280;10573;50.936;6.978;2023-04-26T08:10:53;101535.06;;;10.58;47.59
20825;BME280;10573;50.936;6.978;2023-04-26T08:13:19;101530.63;;;11.01;47.50
20825;BME280;10573;50.936;6.978;2023-04-26T08:15:45;101517.53;;;11.27;45.78
20825;BME280;10573;50.936;6.978;2023-04-26T08:18:11;101516.94;;;11.45;46.46
20825;BME280;10573;50.936;6.978;2023-04-26T08:20:36;101518.94;;;11.42;45.42
20825;BME280;10573;50.936;6.978;2023-04-26T08:23:01;101514.28;;;11.75;44.43
20825;BME280;10573;50.936;6.978;2023-04-26T08:25:27;101514.94;;;11.89;43.38
20825;BME280;10573;50.936;6.978;2023-04-26T08:27:52;101511.84;;;11.72;42.64
20825;BME280;10573;50.936;6.978;2023-04-26T08:30:17;101511.88;;;12.03;41.38
20825;BME280;10573;50.936;6.978;2023-04-26T08:32:43;101506.50;;;12.23;39.83
20825;BME280;10573;50.936;6.978;2023-04-26T08:35:09;101510.38;;;11.68;41.03
20825;BME280;10573;50.936;6.978;2023-04-26T08:37:35;101511.94;;;11.71;41.52
20825;BME280;10573;50.936;6.978;2023-04-26T08:40:01;101527.00;;;11.44;42.88
20825;BME280;10573;50.936;6.978;2023-04-26T08:42:27;101515.75;;;11.58;41.70
20825;BME280;10573;50.936;6.978;2023-04-26T08:44:53;101514.66;;;11.92;41.53
20825;BME280;10573;50.936;6.978;2023-04-26T08:47:26;101518.53;;;12.11;41.61
20825;BME280;10573;50.936;6.978;2023-04-26T08:49:53;101515.19;;;11.44;42.49
20825;BME280;10573;50.936;6.978;2023-04-26T08:52:23;101511.34;;;11.67;42.24
20825;BME280;10573;50.936;6.978;2023-04-26T08:54:51;101505.97;;;11.98;41.46
20825;BME280;10573;50.936;6.978;2023-04-26T08:57:17;101510.31;;;12.41;40.75
20825;BME280;10573;50.936;6.978;2023-04-26T08:59:42;101512.28;;;12.30;40.77
20825;BME280;10573;50.936;6.978;2023-04-26T09:02:08;101507.06;;;12.67;40.05
20825;BME280;10573;50.936;6.978;2023-04-26T09:04:34;101511.44;;;12.39;40.70
20825;BME280;10573;50.936;6.978;2023-04-26T09:07:01;101511.53;;;12.58;41.00
20825;BME280;10573;50.936;6.978;2023-04-26T09:09:27;101513.28;;;12.89;40.45
20825;BME280;10573;50.936;6.978;2023-04-26T09:11:53;101510.53;;;12.69;39.88
20825;BME280;10573;50.936;6.978;2023-04-26T09:14:19;101510.41;;;12.81;39.47
20825;BME280;10573;50.936;6.978;2023-04-26T09:16:45;101507.38;;;12.74;38.56
20825;BME280;10573;50.936;6.978;2023-04-26T09:19:10;101513.53;;;12.66;39.01
20825;BME280;10573;50.936;6.978;2023-04-26T09:21:42;101513.66;;;11.93;40.72
20825;BME280;10573;50.936;6.978;2023-04-26T09:24:08;101518.34;;;12.02;40.39
20825;BME280;10573;50.936;6.978;2023-04-26T09:26:34;101507.63;;;12.20;39.82
20825;BME280;10573;50.936;6.978;2023-04-26T09:29:15;101506.25;;;12.26;40.34
20825;BME280;10573;50.936;6.978;2023-04-26T09:31:45;101506.69;;;12.00;40.78
20825;BME280;10573;50.936;6.978;2023-04-26T09:34:10;101503.50;;;11.95;41.76
20825;BME280;10573;50.936;6.978;2023-04-26T09:39:31;101498.34;;;12.02;40.76
20825;BME280;10573;50.936;6.978;2023-04-26T09:41:57;101504.69;;;12.02;40.94
20825;BME280;10573;50.936;6.978;2023-04-26T09:44:22;101492.13;;;12.21;40.03
20825;BME280;10573;50.936;6.978;2023-04-26T09:47:01;101487.72;;;12.08;39.70
20825;BME280;10573;50.936;6.978;2023-04-26T09:49:29;101493.75;;;12.02;40.33
20825;BME280;10573;50.936;6.978;2023-04-26T09:52:01;101489.84;;;12.26;39.40
20825;BME280;10573;50.936;6.978;2023-04-26T09:54:37;101488.91;;;11.42;40.49
20825;BME280;10573;50.936;6.978;2023-04-26T09:57:02;101489.50;;;11.25;41.57
20825;BME280;10573;50.936;6.978;2023-04-26T09:59:38;101488.72;;;11.77;40.25
20825;BME280;10573;50.936;6.978;2023-04-26T10:02:03;101490.63;;;11.86;38.95
20825;BME280;10573;50.936;6.978;2023-04-26T10:04:30;101480.75;;;12.16;38.13
20825;BME280;10573;50.936;6.978;2023-04-26T10:06:55;101474.53;;;12.14;38.06
20825;BME280;10573;50.936;6.978;2023-04-26T10:09:21;101476.13;;;11.64;38.52
20825;BME280;10573;50.936;6.978;2023-04-26T10:11:46;101478.16;;;11.93;39.18
20825;BME280;10573;50.936;6.978;2023-04-26T10:14:12;101474.97;;;12.09;38.28
20825;BME280;10573;50.936;6.978;2023-04-26T10:16:38;101475.72;;;12.21;38.15
20825;BME280;10573;50.936;6.978;2023-04-26T10:19:05;101475.53;;;12.44;38.20
20825;BME280;10573;50.936;6.978;2023-04-26T10:21:32;101474.69;;;12.63;37.32
20825;BME280;10573;50.936;6.978;2023-04-26T10:23:59;101464.06;;;11.88;38.13
20825;BME280;10573;50.936;6.978;2023-04-26T10:29:09;101476.72;;;12.70;37.04
20825;BME280;10573;50.936;6.978;2023-04-26T10:34:19;101468.25;;;12.93;36.83
20825;BME280;10573;50.936;6.978;2023-04-26T10:37:05;101460.88;;;12.54;37.06
20825;BME280;10573;50.936;6.978;2023-04-26T10:39:30;101456.31;;;12.74;37.33
20825;BME280;10573;50.936;6.978;2023-04-26T10:44:42;101466.22;;;13.24;36.88
20825;BME280;10573;50.936;6.978;2023-04-26T10:47:22;101460.69;;;13.73;36.16
20825;BME280;10573;50.936;6.978;2023-04-26T10:49:48;101456.97;;;14.58;34.46
20825;BME280;10573;50.936;6.978;2023-04-26T10:52:17;101447.34;;;14.54;34.38
20825;BME280;10573;50.936;6.978;2023-04-26T10:54:50;101445.53;;;15.53;33.29
20825;BME280;10573;50.936;6.978;2023-04-26T10:57:16;101436.13;;;16.67;31.64
20825;BME280;10573;50.936;6.978;2023-04-26T11:00:42;101438.00;;;16.67;30.60
20825;BME280;10573;50.936;6.978;2023-04-26T11:08:05;101446.75;;;15.32;31.63
20825;BME280;10573;50.936;6.978;2023-04-26T11:10:31;101449.91;;;14.83;31.62
20825;BME280;10573;50.936;6.978;2023-04-26T11:12:59;101454.69;;;13.98;33.02
20825;BME280;10573;50.936;6.978;2023-04-26T11:15:25;101448.47;;;14.33;33.08
20825;BME280;10573;50.936;6.978;2023-04-26T11:17:50;101444.31;;;14.29;32.71
20825;BME280;10573;50.936;6.978;2023-04-26T11:20:16;101439.41;;;14.05;34.95
20825;BME280;10573;50.936;6.978;2023-04-26T11:22:41;101433.06;;;14.96;32.45
20825;BME280;10573;50.936;6.978;2023-04-26T11:25:06;101437.28;;;14.72;32.86
20825;BME280;10573;50.936;6.978;2023-04-26T11:27:31;101438.00;;;14.74;31.47
20825;BME280;10573;50.936;6.978;2023-04-26T11:29:57;101426.81;;;14.58;31.33
20825;BME280;10573;50.936;6.978;2023-04-26T11:32:22;101417.19;;;15.26;32.54
20825;BME280;10573;50.936;6.978;2023-04-26T11:34:48;101420.59;;;14.66;32.70
20825;BME280;10573;50.936;6.978;2023-04-26T11:37:15;101416.28;;;15.43;32.73
20825;BME280;10573;50.936;6.978;2023-04-26T11:39:41;101417.41;;;15.33;31.70
20825;BME280;10573;50.936;6.978;2023-04-26T11:42:12;101402.13;;;17.01;29.75
20825;BME280;10573;50.936;6.978;2023-04-26T11:44:38;101409.78;;;16.65;30.39
20825;BME280;10573;50.936;6.978;2023-04-26T11:47:06;101405.81;;;15.73;31.19
20825;BME280;10573;50.936;6.978;2023-04-26T11:49:32;101404.38;;;16.89;29.92
20825;BME280;10573;50.936;6.978;2023-04-26T11:51:58;101396.56;;;17.51;29.62
20825;BME280;10573;50.936;6.978;2023-04-26T11:54:27;101393.66;;;18.08;28.28
20825;BME280;10573;50.936;6.978;2023-04-26T11:56:54;101391.41;;;17.56;28.15
20825;BME280;10573;50.936;6.978;2023-04-26T11:59:25;101401.16;;;18.54;27.63
20825;BME280;10573;50.936;6.978;2023-04-26T12:01:52;101401.47;;;18.36;27.51
20825;BME280;10573;50.936;6.978;2023-04-26T12:04:18;101392.97;;;17.25;28.09
20825;BME280;10573;50.936;6.978;2023-04-26T12:06:45;101397.34;;;15.32;30.25
20825;BME280;10573;50.936;6.978;2023-04-26T12:09:11;101410.75;;;15.88;31.16
20825;BME280;10573;50.936;6.978;2023-04-26T12:11:37;101413.31;;;14.74;33.04
20825;BME280;10573;50.936;6.978;2023-04-26T12:14:02;101418.41;;;14.41;33.26
20825;BME280;10573;50.936;6.978;2023-04-26T12:16:29;101416.44;;;14.80;31.41
20825;BME280;10573;50.936;6.978;2023-04-26T12:18:54;101408.50;;;14.94;32.20
20825;BME280;10573;50.936;6.978;2023-04-26T12:21:21;101415.09;;;15.72;31.04
20825;BME280;10573;50.936;6.978;2023-04-26T12:23:46;101408.69;;;15.90;30.36
20825;BME280;10573;50.936;6.978;2023-04-26T12:26:12;101415.53;;;17.21;28.64
20825;BME280;10573;50.936;6.978;2023-04-26T12:28:38;101414.00;;;18.07;27.44
20825;BME280;10573;50.936;6.978;2023-04-26T12:31:03;101408.22;;;16.46;28.71
20825;BME280;10573;50.936;6.978;2023-04-26T12:33:29;101406.94;;;16.91;29.95
20825;BME280;10573;50.936;6.978;2023-04-26T12:35:55;101408.16;;;17.05;28.76
20825;BME280;10573;50.936;6.978;2023-04-26T12:38:21;101408.50;;;17.02;28.27
20825;BME280;10573;50.936;6.978;2023-04-26T12:40:47;101403.31;;;16.15;29.70
20825;BME280;10573;50.936;6.978;2023-04-26T12:43:12;101409.16;;;15.59;31.15
20825;BME280;10573;50.936;6.978;2023-04-26T12:45:39;101404.13;;;16.66;30.06
20825;BME280;10573;50.936;6.978;2023-04-26T12:48:05;101411.00;;;16.62;28.92
20825;BME280;10573;50.936;6.978;2023-04-26T12:50:30;101420.47;;;14.12;32.33
20825;BME280;10573;50.936;6.978;2023-04-26T12:52:56;101419.84;;;13.42;33.90
20825;BME280;10573;50.936;6.978;2023-04-26T12:55:21;101417.59;;;13.75;33.77
20825;BME280;10573;50.936;6.978;2023-04-26T12:57:46;101412.66;;;15.17;32.06
20825;BME280;10573;50.936;6.978;2023-04-26T13:00:15;101406.41;;;14.70;32.48
20825;BME280;10573;50.936;6.978;2023-04-26T13:02:43;101404.59;;;15.41;31.43
20825;BME280;10573;50.936;6.978;2023-04-26T13:05:09;101397.59;;;16.59;30.85